Time;durP1;ratioP1;P1;durP2;ratioP2;P2;SDS_P1;SDS_P2;PMS_P1;PMS_P2;Temp;Humidity;BMP_temperature;BMP_pressure;BME280_temperature;BME280_humidity;BME280_pressure;Samples;Min_cycle;Max_cycle;Signal;HPM_P1;HPM_P2
2022/11/12 00:01:12;;;;;;;6.70;4.53;;;;;;;19.92;60.42;101961.47;5094116;28;20206;-65
2022/11/12 00:03:37;;;;;;;10.47;3.73;;;;;;;19.92;60.33;101962.28;5074878;28;20191;-65
2022/11/12 00:06:02;;;;;;;13.77;4.13;;;;;;;19.94;59.86;101962.81;5074258;28;20182;-65
2022/11/12 00:08:28;;;;;;;8.60;3.93;;;;;;;19.93;59.89;101964.00;5040659;28;20582;-65
2022/11/12 00:10:53;;;;;;;9.47;3.53;;;;;;;19.91;59.90;101968.41;5093886;28;20163;-64
2022/11/12 00:13:19;;;;;;;7.70;3.67;;;;;;;19.95;59.62;101967.34;5073426;28;20232;-65
2022/11/12 00:15:45;;;;;;;8.33;4.33;;;;;;;19.92;59.36;101967.22;5074418;28;20606;-65
2022/11/12 00:18:10;;;;;;;8.60;3.70;;;;;;;19.89;59.67;101963.00;5076697;28;20165;-65
2022/11/12 00:20:36;;;;;;;13.50;4.30;;;;;;;19.89;59.73;101965.88;5094280;28;20400;-65
2022/11/12 00:23:01;;;;;;;12.23;5.40;;;;;;;19.92;59.47;101961.47;5084647;28;20183;-65
2022/11/12 00:25:27;;;;;;;7.83;3.60;;;;;;;19.87;59.39;101958.81;5070928;28;20185;-65
2022/11/12 00:27:52;;;;;;;12.30;3.87;;;;;;;19.76;59.60;101958.38;5093698;28;20159;-65
2022/11/12 00:30:18;;;;;;;10.13;3.97;;;;;;;19.71;59.00;101952.88;5093406;28;20190;-65
2022/11/12 00:32:43;;;;;;;9.10;3.93;;;;;;;19.71;58.93;101949.19;5075808;28;20182;-65
2022/11/12 00:35:09;;;;;;;8.40;3.60;;;;;;;19.75;58.85;101956.72;5093875;28;20178;-65
2022/11/12 00:37:34;;;;;;;5.10;2.73;;;;;;;19.74;59.33;101955.03;5075803;28;20173;-65
2022/11/12 00:40:00;;;;;;;8.47;3.77;;;;;;;19.74;59.21;101957.91;5093821;28;20693;-65
2022/11/12 00:42:25;;;;;;;6.50;3.13;;;;;;;19.75;59.69;101950.97;5093232;28;20166;-65
2022/11/12 00:44:51;;;;;;;20.43;4.43;;;;;;;19.72;59.81;101954.53;5075018;28;20174;-65
2022/11/12 00:47:16;;;;;;;9.10;3.87;;;;;;;19.72;59.99;101959.44;5074840;28;20220;-65
2022/11/12 00:49:43;;;;;;;8.10;3.50;;;;;;;19.70;60.08;101954.06;5070890;28;20277;-64
2022/11/12 00:52:08;;;;;;;6.00;3.57;;;;;;;19.72;60.39;101953.72;5074736;28;20633;-65
2022/11/12 00:54:34;;;;;;;7.40;3.83;;;;;;;19.69;60.22;101951.53;5092880;28;20435;-65
2022/11/12 00:56:59;;;;;;;11.13;3.67;;;;;;;19.68;60.35;101961.31;5093124;28;20177;-65
2022/11/12 00:59:25;;;;;;;5.67;3.30;;;;;;;19.70;60.38;101958.94;5093829;28;20179;-64
2022/11/12 01:01:50;;;;;;;7.30;3.13;;;;;;;19.70;60.48;101964.66;5090164;28;20178;-65
2022/11/12 01:04:16;;;;;;;10.40;3.10;;;;;;;19.71;60.61;101958.59;5084948;28;20233;-65
2022/11/12 01:06:41;;;;;;;5.63;3.07;;;;;;;19.71;60.64;101963.50;5073304;28;20159;-65
2022/11/12 01:09:08;;;;;;;5.23;2.93;;;;;;;19.68;60.69;101956.44;5072916;28;20199;-65
2022/11/12 01:11:33;;;;;;;5.20;3.70;;;;;;;19.70;60.83;101965.53;5081065;28;20170;-65
2022/11/12 01:14:00;;;;;;;5.23;3.17;;;;;;;19.68;60.94;101953.59;5072884;28;20849;-66
2022/11/12 01:16:31;;;;;;;5.30;3.40;;;;;;;19.68;60.89;101955.59;5055018;28;20174;-64
2022/11/12 01:18:58;;;;;;;6.23;2.93;;;;;;;19.67;61.05;101951.88;5071804;28;20420;-65
2022/11/12 01:21:25;;;;;;;3.83;2.60;;;;;;;19.68;61.18;101953.59;5072723;28;20433;-65
2022/11/12 01:23:50;;;;;;;5.73;3.10;;;;;;;19.66;61.32;101949.38;5071429;28;20426;-65
2022/11/12 01:26:17;;;;;;;6.67;3.83;;;;;;;19.65;61.23;101941.94;5070899;28;20861;-65
2022/11/12 01:28:43;;;;;;;6.60;3.40;;;;;;;19.67;61.40;101943.28;5072502;28;20245;-65
2022/11/12 01:31:14;;;;;;;6.67;3.57;;;;;;;19.64;61.55;101944.00;5092148;28;20459;-65
2022/11/12 01:33:40;;;;;;;7.00;3.93;;;;;;;19.66;61.32;101944.47;5092864;28;20201;-65
2022/11/12 01:36:06;;;;;;;5.30;3.20;;;;;;;19.64;61.58;101946.88;5093079;28;20494;-65
2022/11/12 01:38:36;;;;;;;7.90;3.60;;;;;;;19.65;61.58;101939.94;5092925;28;20174;-65
2022/11/12 01:41:01;;;;;;;6.37;3.13;;;;;;;19.63;61.53;101938.59;5075361;28;20457;-65
2022/11/12 01:43:27;;;;;;;6.67;3.60;;;;;;;19.61;61.56;101938.94;5074621;28;20424;-65
2022/11/12 01:45:52;;;;;;;5.20;3.20;;;;;;;19.60;61.68;101937.28;5074941;28;20185;-65
2022/11/12 01:48:35;;;;;;;5.80;3.20;;;;;;;19.63;61.65;101941.47;5074298;28;20194;-65
2022/11/12 01:51:01;;;;;;;6.70;2.90;;;;;;;19.62;61.70;101934.06;5070507;28;20665;-65
2022/11/12 01:53:27;;;;;;;4.20;3.00;;;;;;;19.61;62.15;101941.81;5039613;28;20465;-65
2022/11/12 01:55:53;;;;;;;4.60;2.90;;;;;;;19.57;61.81;101931.41;5054421;28;20163;-65
2022/11/12 01:58:19;;;;;;;5.07;2.70;;;;;;;19.56;61.93;101927.69;5072289;28;20198;-65
2022/11/12 02:00:44;;;;;;;6.30;3.27;;;;;;;19.56;61.91;101932.59;5069663;28;20183;-64
2022/11/12 02:03:14;;;;;;;7.90;2.93;;;;;;;19.59;61.79;101935.59;5044646;28;20456;-63
2022/11/12 02:05:39;;;;;;;6.00;3.27;;;;;;;19.55;62.06;101928.03;5069410;28;20836;-63
2022/11/12 02:08:04;;;;;;;6.10;3.03;;;;;;;19.53;62.18;101927.56;5034362;28;20437;-63
2022/11/12 02:10:30;;;;;;;4.03;3.03;;;;;;;19.57;62.09;101935.09;5068780;28;20240;-64
2022/11/12 02:15:39;;;;;;;5.47;3.27;;;;;;;19.58;62.08;101931.06;5079124;28;20188;-63
2022/11/12 02:18:05;;;;;;;8.20;2.80;;;;;;;19.55;62.16;101928.91;5072142;28;20425;-63
2022/11/12 02:20:36;;;;;;;4.40;2.97;;;;;;;19.56;62.03;101929.75;5090988;28;20181;-63
2022/11/12 02:23:03;;;;;;;8.50;2.80;;;;;;;19.54;62.23;101929.22;5091196;28;20162;-63
2022/11/12 02:25:28;;;;;;;5.20;2.80;;;;;;;19.55;62.14;101930.91;5091171;28;20431;-63
2022/11/12 02:27:54;;;;;;;7.73;2.83;;;;;;;19.51;62.29;101921.34;5073096;28;20400;-63
2022/11/12 02:30:31;;;;;;;4.43;3.10;;;;;;;19.56;62.21;101916.25;5090720;28;20220;-63
2022/11/12 02:32:57;;;;;;;4.87;2.70;;;;;;;19.53;62.32;101918.97;5072651;28;20424;-64
2022/11/12 02:35:23;;;;;;;5.00;2.30;;;;;;;19.54;62.06;101915.75;5073131;28;20420;-63
2022/11/12 02:37:48;;;;;;;4.67;2.77;;;;;;;19.54;62.08;101910.03;5090824;28;20186;-63
2022/11/12 02:40:14;;;;;;;4.90;2.73;;;;;;;19.50;62.27;101909.03;5090787;28;20174;-63
2022/11/12 02:42:39;;;;;;;4.20;2.83;;;;;;;19.56;62.13;101910.50;5090921;28;20165;-63
2022/11/12 02:45:05;;;;;;;4.80;2.70;;;;;;;19.57;62.12;101915.03;5090798;28;20159;-63
2022/11/12 02:47:30;;;;;;;6.00;2.80;;;;;;;19.60;62.08;101913.50;5089419;28;20182;-63
2022/11/12 02:49:56;;;;;;;4.20;2.93;;;;;;;19.63;62.27;101927.16;5090736;28;20190;-63
2022/11/12 02:52:21;;;;;;;3.57;2.73;;;;;;;19.62;62.06;101917.69;5072832;28;20237;-62
2022/11/12 02:54:46;;;;;;;5.73;2.80;;;;;;;19.59;62.28;101915.56;5073289;28;20170;-64
2022/11/12 02:57:12;;;;;;;5.00;3.00;;;;;;;19.58;62.31;101913.03;5072959;28;20179;-63
2022/11/12 02:59:37;;;;;;;5.40;2.90;;;;;;;19.58;62.04;101918.75;5084549;28;20183;-63
2022/11/12 03:02:03;;;;;;;4.17;3.00;;;;;;;19.56;62.14;101899.06;5069278;28;20183;-63
2022/11/12 03:04:28;;;;;;;3.23;2.43;;;;;;;19.57;62.17;101903.59;5085259;28;20210;-63
2022/11/12 03:06:53;;;;;;;6.30;2.73;;;;;;;19.55;62.38;101903.13;5090827;28;20170;-63
2022/11/12 03:09:19;;;;;;;4.30;2.90;;;;;;;19.58;62.25;101899.56;5090646;28;20194;-63
2022/11/12 03:11:44;;;;;;;4.57;2.90;;;;;;;19.54;62.30;101901.44;5072906;28;20171;-63
2022/11/12 03:14:10;;;;;;;3.73;2.50;;;;;;;19.52;62.34;101900.94;5094363;28;20167;-63
2022/11/12 03:16:35;;;;;;;4.60;2.50;;;;;;;19.54;62.23;101904.31;5075707;28;20183;-63
2022/11/12 03:19:01;;;;;;;6.43;2.83;;;;;;;19.54;62.11;101910.03;5093346;28;20166;-63
2022/11/12 03:21:26;;;;;;;7.30;3.47;;;;;;;19.54;62.19;101915.75;5091739;28;20182;-63
2022/11/12 03:23:51;;;;;;;5.27;2.60;;;;;;;19.55;62.41;101917.44;5093968;28;20163;-63
2022/11/12 03:26:17;;;;;;;5.40;3.23;;;;;;;19.53;62.25;101916.09;5076073;28;20174;-63
2022/11/12 03:28:42;;;;;;;4.50;2.80;;;;;;;19.55;62.29;101923.16;5094071;28;20195;-63
2022/11/12 03:31:10;;;;;;;5.70;2.67;;;;;;;19.58;62.16;101913.88;5094070;28;20187;-64
2022/11/12 03:33:36;;;;;;;5.10;2.70;;;;;;;19.56;62.28;101910.50;5093891;28;20522;-63
2022/11/12 03:36:03;;;;;;;3.50;2.23;;;;;;;19.54;62.29;101910.03;5076017;28;20434;-63
2022/11/12 03:38:28;;;;;;;4.50;2.50;;;;;;;19.56;62.27;101918.28;5093665;28;20209;-63
2022/11/12 03:40:53;;;;;;;6.33;2.90;;;;;;;19.54;62.23;101907.16;5093831;28;20401;-62
2022/11/12 03:43:19;;;;;;;16.47;3.50;;;;;;;19.54;62.31;101909.19;5090602;28;20175;-62
2022/11/12 03:45:44;;;;;;;5.77;2.70;;;;;;;19.55;62.26;101914.56;5076337;28;20185;-62
2022/11/12 03:48:10;;;;;;;4.03;2.60;;;;;;;19.52;62.32;101906.66;5095873;28;20820;-63
2022/11/12 03:50:35;;;;;;;4.73;2.83;;;;;;;19.52;62.02;101909.53;5072807;28;20550;-62
2022/11/12 03:53:01;;;;;;;3.73;2.80;;;;;;;19.54;62.28;101912.03;5113588;28;20802;-62
2022/11/12 03:55:27;;;;;;;4.03;2.70;;;;;;;19.51;62.31;101916.44;5095591;28;20536;-62
2022/11/12 03:57:52;;;;;;;4.53;2.87;;;;;;;19.52;62.43;101915.25;5113963;28;20158;-63
2022/11/12 04:00:18;;;;;;;4.50;2.43;;;;;;;19.54;62.17;101921.50;5083498;28;20550;-63
2022/11/12 04:02:44;;;;;;;4.67;2.50;;;;;;;19.54;62.32;101909.19;5074156;28;20257;-63
2022/11/12 04:10:59;;;;;;;4.30;2.43;;;;;;;19.49;62.21;101901.66;5079702;28;20817;-62
2022/11/12 04:13:28;;;;;;;3.30;2.37;;;;;;;19.48;62.52;101904.84;5074856;28;20409;-63
2022/11/12 04:26:21;;;;;;;3.97;2.40;;;;;;;19.51;62.36;101902.13;5062277;28;20419;-63
2022/11/12 04:26:54;;;;;;;3.10;2.10;;;;;;;19.52;62.16;101906.66;5092148;28;20887;-63
2022/11/12 04:32:04;;;;;;;4.30;2.17;;;;;;;19.47;62.49;101898.28;5092101;28;20173;-62
2022/11/12 04:34:29;;;;;;;3.77;2.10;;;;;;;19.47;62.49;101892.53;5073710;28;20421;-62
2022/11/12 04:36:54;;;;;;;4.37;2.97;;;;;;;19.48;62.42;101894.25;5074043;28;20179;-62
2022/11/12 04:39:20;;;;;;;4.43;2.80;;;;;;;19.48;62.49;101902.84;5092687;28;20158;-63
2022/11/12 04:47:13;;;;;;;3.53;2.20;;;;;;;19.48;62.55;101893.41;5092567;28;20549;-62
2022/11/12 04:49:39;;;;;;;3.40;2.10;;;;;;;19.46;62.45;101896.59;5092465;28;20453;-62
2022/11/12 04:52:04;;;;;;;3.80;2.40;;;;;;;19.47;62.36;101895.41;5092384;28;20214;-62
2022/11/12 04:54:29;;;;;;;3.87;2.63;;;;;;;19.48;62.37;101897.13;5092565;28;20170;-62
2022/11/12 04:56:55;;;;;;;4.30;2.50;;;;;;;19.47;62.49;101901.13;5092550;28;20540;-62
2022/11/12 04:59:20;;;;;;;4.50;2.43;;;;;;;19.45;62.58;101902.69;5092154;28;20671;-62
2022/11/12 05:01:46;;;;;;;3.10;2.10;;;;;;;19.47;62.36;101889.69;5092175;28;20158;-62
2022/11/12 05:04:11;;;;;;;2.80;2.13;;;;;;;19.44;62.70;101899.00;5079563;28;20202;-63
2022/11/12 05:06:52;;;;;;;3.47;2.40;;;;;;;19.49;62.41;101901.66;5074622;28;20177;-62
2022/11/12 05:09:22;;;;;;;2.63;2.03;;;;;;;19.47;62.51;101908.91;5070372;28;20538;-62
2022/11/12 05:11:47;;;;;;;3.70;2.07;;;;;;;19.48;62.40;101910.59;5080635;28;20836;-63
2022/11/12 05:14:13;;;;;;;4.67;2.07;;;;;;;19.49;62.57;101903.66;5092272;28;20408;-62
2022/11/12 05:16:38;;;;;;;2.97;2.27;;;;;;;19.43;62.55;101905.91;5073854;28;20170;-62
2022/11/12 05:19:04;;;;;;;3.20;2.23;;;;;;;19.45;62.57;101914.97;5075926;28;20531;-62
2022/11/12 05:24:13;;;;;;;4.00;2.30;;;;;;;19.45;62.59;101905.53;5070488;28;20182;-62
2022/11/12 05:26:39;;;;;;;5.80;2.03;;;;;;;19.43;62.65;101902.19;5071365;28;20421;-62
2022/11/12 05:29:04;;;;;;;4.10;2.20;;;;;;;19.46;62.45;101892.91;5073200;28;20179;-62
2022/11/12 05:31:30;;;;;;;3.60;2.17;;;;;;;19.47;62.58;101888.84;5091808;28;20155;-62
2022/11/12 05:33:55;;;;;;;4.20;2.13;;;;;;;19.45;62.42;101880.63;5091969;28;20170;-62
2022/11/12 05:36:21;;;;;;;2.60;2.00;;;;;;;19.46;62.56;101888.00;5072668;28;20174;-62
2022/11/12 05:38:46;;;;;;;3.00;2.20;;;;;;;19.45;62.46;101892.06;5091475;28;20191;-62
2022/11/12 05:41:12;;;;;;;2.97;2.10;;;;;;;19.45;62.61;101894.94;5071288;28;20227;-63
2022/11/12 05:43:37;;;;;;;2.53;2.00;;;;;;;19.45;62.62;101899.81;5093637;28;20154;-62
2022/11/12 05:46:02;;;;;;;3.70;1.90;;;;;;;19.43;62.63;101896.47;5111884;28;20686;-63
2022/11/12 05:48:28;;;;;;;3.30;2.20;;;;;;;19.44;62.63;101903.88;5093562;28;20743;-63
2022/11/12 05:50:53;;;;;;;2.97;2.00;;;;;;;19.47;62.45;101900.31;5093668;28;20181;-62
2022/11/12 05:53:19;;;;;;;2.50;1.80;;;;;;;19.42;62.52;101901.34;5093695;28;20258;-62
2022/11/12 05:55:45;;;;;;;3.43;2.10;;;;;;;19.41;62.66;101896.81;5073098;28;20190;-62
2022/11/12 05:58:11;;;;;;;3.00;2.00;;;;;;;19.42;62.63;101901.34;5088077;28;20435;-62
2022/11/12 06:00:39;;;;;;;3.40;2.10;;;;;;;19.46;62.54;101901.50;5076514;28;20194;-62
2022/11/12 06:03:05;;;;;;;3.87;2.00;;;;;;;19.41;62.82;101899.66;5071068;28;20649;-63
2022/11/12 06:05:31;;;;;;;3.23;2.20;;;;;;;19.43;62.51;101896.47;5069205;28;20787;-63
2022/11/12 06:07:57;;;;;;;3.27;2.03;;;;;;;19.41;62.76;101898.84;5034890;28;20872;-63
2022/11/12 06:10:22;;;;;;;4.30;2.20;;;;;;;19.43;62.55;101897.31;5032893;28;20529;-63
2022/11/12 06:12:48;;;;;;;4.07;2.33;;;;;;;19.40;62.62;101900.88;5033140;28;20249;-62
2022/11/12 06:15:13;;;;;;;3.30;2.00;;;;;;;19.44;62.65;101896.13;5033027;28;20164;-63
2022/11/12 06:17:39;;;;;;;3.53;2.10;;;;;;;19.45;62.45;101897.78;5050951;28;20226;-63
2022/11/12 06:20:05;;;;;;;2.90;2.10;;;;;;;19.42;62.59;101907.06;5050679;28;20191;-63
2022/11/12 06:22:30;;;;;;;3.63;2.20;;;;;;;19.42;62.67;101909.94;5032810;28;20740;-63
2022/11/12 06:24:55;;;;;;;4.23;2.33;;;;;;;19.42;62.60;101915.66;5050524;28;20472;-63
2022/11/12 06:27:22;;;;;;;3.50;2.10;;;;;;;19.43;62.58;101920.22;5033461;28;20167;-62
2022/11/12 06:29:48;;;;;;;4.40;2.40;;;;;;;19.41;62.66;101934.03;5058703;28;20397;-63
2022/11/12 06:32:13;;;;;;;3.90;2.60;;;;;;;19.44;62.73;101930.50;5052880;28;20757;-62
2022/11/12 06:34:39;;;;;;;2.80;1.93;;;;;;;19.42;62.62;101935.72;5036058;28;20175;-63
2022/11/12 06:37:04;;;;;;;3.80;2.10;;;;;;;19.44;62.69;101943.97;5070798;28;20194;-63
2022/11/12 06:39:29;;;;;;;2.87;1.80;;;;;;;19.44;62.50;101946.84;5070498;28;20213;-63
2022/11/12 06:41:55;;;;;;;3.10;2.30;;;;;;;19.41;62.57;101948.38;5070772;28;20167;-62
2022/11/12 06:44:20;;;;;;;3.20;2.20;;;;;;;19.39;62.73;101945.03;5052778;28;20229;-63
2022/11/12 06:46:46;;;;;;;5.90;2.60;;;;;;;19.42;62.59;101952.91;5053822;28;20182;-63
2022/11/12 06:49:11;;;;;;;3.07;1.70;;;;;;;19.43;62.67;101950.88;5073787;28;20198;-63
2022/11/12 06:51:38;;;;;;;3.93;2.27;;;;;;;19.39;62.75;101953.63;5075674;28;20240;-63
2022/11/12 06:54:04;;;;;;;2.30;1.67;;;;;;;19.40;62.61;101949.56;5071952;28;20182;-63
2022/11/12 06:56:30;;;;;;;3.60;2.20;;;;;;;19.42;62.57;101957.81;5053167;28;20402;-63
2022/11/12 06:58:55;;;;;;;3.80;2.10;;;;;;;19.39;62.78;101949.91;5053074;28;20428;-62
2022/11/12 07:01:22;;;;;;;2.10;1.60;;;;;;;19.43;62.59;101953.75;5071107;28;20224;-63
2022/11/12 07:03:50;;;;;;;3.20;2.00;;;;;;;19.40;62.72;101946.69;5071291;28;20674;-63
2022/11/12 07:06:18;;;;;;;2.90;2.20;;;;;;;19.38;62.84;101940.50;5071368;28;20546;-63
2022/11/12 07:08:43;;;;;;;2.87;2.00;;;;;;;19.41;62.63;101944.69;5070532;28;20907;-63
2022/11/12 07:11:09;;;;;;;3.70;2.33;;;;;;;19.40;62.72;101949.56;5073784;28;20410;-62
2022/11/12 07:13:34;;;;;;;2.80;2.10;;;;;;;19.44;62.64;101950.56;5074195;28;20183;-62
2022/11/12 07:16:00;;;;;;;2.20;1.63;;;;;;;19.43;62.61;101954.59;5073656;28;20175;-62
2022/11/12 07:18:26;;;;;;;2.57;1.87;;;;;;;19.40;62.68;101952.41;5056111;28;20163;-62
2022/11/12 07:20:55;;;;;;;3.60;2.30;;;;;;;19.41;62.64;101944.69;5067502;28;20676;-63
2022/11/12 07:23:21;;;;;;;3.00;1.70;;;;;;;19.41;62.87;101947.53;5053885;28;20196;-63
2022/11/12 07:25:46;;;;;;;3.00;2.10;;;;;;;19.42;62.78;101947.16;5053772;28;20409;-63
2022/11/12 07:28:12;;;;;;;3.60;2.13;;;;;;;19.37;62.87;101953.09;5035971;28;20210;-63
2022/11/12 07:30:37;;;;;;;2.60;2.00;;;;;;;19.43;62.70;101951.75;5059774;28;20179;-62
2022/11/12 07:33:04;;;;;;;4.17;2.27;;;;;;;19.42;62.81;101944.31;5066361;28;20269;-63
2022/11/12 07:35:29;;;;;;;3.07;1.93;;;;;;;19.41;62.69;101939.78;5073714;28;20178;-63
2022/11/12 07:37:55;;;;;;;3.00;1.60;;;;;;;19.42;62.86;101944.31;5074421;28;20901;-62
2022/11/12 07:40:20;;;;;;;3.37;2.17;;;;;;;19.43;62.68;101948.88;5073473;28;20178;-62
2022/11/12 07:42:46;;;;;;;2.83;2.07;;;;;;;19.45;62.56;101946.50;5061133;28;20184;-62
2022/11/12 07:45:11;;;;;;;2.83;1.83;;;;;;;19.44;62.66;101944.81;5053755;28;20614;-63
2022/11/12 07:47:37;;;;;;;3.07;1.93;;;;;;;19.41;62.70;101945.50;5053025;28;20164;-62
2022/11/12 07:50:02;;;;;;;3.40;2.23;;;;;;;19.40;62.80;101940.97;5065338;28;20199;-63
2022/11/12 07:52:28;;;;;;;2.87;1.97;;;;;;;19.44;62.64;101943.97;5072475;28;20246;-62
2022/11/12 07:54:53;;;;;;;3.50;1.90;;;;;;;19.41;62.64;101938.97;5071911;28;20182;-62
2022/11/12 07:57:18;;;;;;;3.60;1.90;;;;;;;19.44;62.49;101939.09;5036441;28;20191;-62
2022/11/12 07:59:44;;;;;;;3.57;1.87;;;;;;;19.39;62.76;101935.56;5071409;28;20179;-62
2022/11/12 08:02:10;;;;;;;2.40;1.60;;;;;;;19.42;62.88;101937.75;5073080;28;20171;-64
2022/11/12 08:04:35;;;;;;;3.20;2.13;;;;;;;19.43;62.59;101946.00;5067345;28;20503;-63
2022/11/12 08:07:01;;;;;;;3.67;2.00;;;;;;;19.45;62.45;101940.75;5070242;28;20194;-62
2022/11/12 08:09:26;;;;;;;3.73;2.30;;;;;;;19.45;62.51;101942.78;5072681;28;20206;-62
2022/11/12 08:11:53;;;;;;;3.23;1.97;;;;;;;19.40;62.82;101948.72;5070156;28;20191;-63
2022/11/12 08:14:18;;;;;;;2.33;1.80;;;;;;;19.40;62.61;101945.84;5062228;28;20180;-62
2022/11/12 08:16:45;;;;;;;3.40;2.20;;;;;;;19.42;62.62;101952.09;5047729;28;20428;-63
2022/11/12 08:19:10;;;;;;;3.70;2.13;;;;;;;19.45;62.53;101957.94;5072852;28;20190;-63
2022/11/12 08:21:36;;;;;;;3.77;2.23;;;;;;;19.45;62.46;101951.38;5071964;28;20402;-62
2022/11/12 08:24:02;;;;;;;3.07;2.20;;;;;;;19.45;62.47;101946.50;5064498;28;20226;-62
2022/11/12 08:26:27;;;;;;;3.57;2.20;;;;;;;19.42;62.62;101955.75;5058669;28;20244;-63
2022/11/12 08:28:53;;;;;;;2.57;1.67;;;;;;;19.44;62.60;101964.03;5050403;28;20222;-63
2022/11/12 08:31:19;;;;;;;2.90;1.97;;;;;;;19.44;62.68;101967.75;5072527;28;20171;-63
2022/11/12 08:33:45;;;;;;;2.90;2.00;;;;;;;19.49;62.49;101963.81;5038281;28;20166;-63
2022/11/12 08:36:12;;;;;;;3.60;2.17;;;;;;;19.46;62.59;101965.34;5057664;28;20434;-63
2022/11/12 08:38:38;;;;;;;2.90;2.10;;;;;;;19.48;62.66;101963.00;5037848;28;20232;-63
2022/11/12 08:41:05;;;;;;;3.47;1.80;;;;;;;19.45;62.46;101957.09;5027787;28;20509;-63
2022/11/12 08:43:30;;;;;;;2.70;2.00;;;;;;;19.46;62.42;101976.00;5071666;28;20915;-63
2022/11/12 08:45:59;;;;;;;2.90;2.30;;;;;;;19.46;62.68;101970.25;5065639;28;20430;-63
2022/11/12 08:48:24;;;;;;;3.67;1.80;;;;;;;19.43;62.75;101968.94;5049133;28;20962;-63
2022/11/12 08:50:50;;;;;;;3.70;1.90;;;;;;;19.46;62.47;101965.34;5046964;28;20430;-63
2022/11/12 08:53:15;;;;;;;3.60;2.27;;;;;;;19.40;62.76;101963.03;5069854;28;20230;-62
2022/11/12 08:55:41;;;;;;;2.50;2.00;;;;;;;19.46;62.52;101953.91;5069922;28;20183;-63
2022/11/12 08:58:06;;;;;;;4.00;2.20;;;;;;;19.44;62.70;101956.28;5051075;28;20202;-63
2022/11/12 09:00:34;;;;;;;2.90;1.77;;;;;;;19.47;62.43;101949.84;5063861;28;20697;-63
2022/11/12 09:03:00;;;;;;;2.80;2.00;;;;;;;19.48;62.52;101950.69;5058347;28;20230;-63
2022/11/12 09:05:25;;;;;;;2.70;1.80;;;;;;;19.42;63.15;101955.75;5049264;28;20541;-63
2022/11/12 09:07:58;;;;;;;2.87;1.87;;;;;;;19.43;62.61;101948.88;5069642;28;20566;-63
2022/11/12 09:10:23;;;;;;;2.60;1.90;;;;;;;19.45;62.53;101957.94;5034947;28;20194;-62
2022/11/12 09:12:52;;;;;;;2.97;1.87;;;;;;;19.45;62.61;101963.69;5060221;28;20423;-63
2022/11/12 09:15:18;;;;;;;4.00;1.97;;;;;;;19.44;62.44;101962.00;5059858;28;20180;-62
2022/11/12 09:17:43;;;;;;;3.33;2.03;;;;;;;19.46;62.46;101964.53;5019591;28;20433;-62
2022/11/12 09:20:09;;;;;;;3.30;1.80;;;;;;;19.42;62.74;101960.66;5058185;28;20496;-63
2022/11/12 09:22:34;;;;;;;3.10;1.93;;;;;;;19.49;62.51;101963.81;5056876;28;20696;-63
2022/11/12 09:25:00;;;;;;;3.20;2.00;;;;;;;19.48;62.50;101973.59;5038006;28;20577;-63
2022/11/12 09:27:26;;;;;;;3.30;2.30;;;;;;;19.48;62.37;101970.75;5054348;28;20583;-63
2022/11/12 09:29:51;;;;;;;2.50;1.60;;;;;;;19.47;62.66;101963.34;5070827;28;20293;-63
2022/11/12 09:32:17;;;;;;;2.90;2.10;;;;;;;19.47;62.54;101966.19;5071063;28;20931;-63
2022/11/12 09:34:42;;;;;;;3.37;2.00;;;;;;;19.45;62.64;101968.56;5051669;28;20187;-62
2022/11/12 09:37:08;;;;;;;3.40;2.13;;;;;;;19.46;62.60;101973.13;5070764;28;20179;-63
2022/11/12 09:39:33;;;;;;;2.83;1.80;;;;;;;19.36;62.59;101979.25;5066966;28;20186;-63
2022/11/12 09:41:58;;;;;;;46.23;20.97;;;;;;;18.89;54.86;101975.56;5059770;28;20184;-63
2022/11/12 09:44:24;;;;;;;55.40;26.13;;;;;;;18.86;59.38;101969.69;5057469;28;20191;-63
2022/11/12 09:47:17;;;;;;;70.27;31.27;;;;;;;19.14;59.38;101974.63;5035691;28;20171;-62
2022/11/12 09:49:49;;;;;;;63.93;29.20;;;;;;;19.32;57.57;101973.34;5060637;28;20202;-63
2022/11/12 09:52:23;;;;;;;64.07;28.00;;;;;;;19.40;57.42;101971.63;5029033;28;20480;-62
2022/11/12 09:54:51;;;;;;;54.83;25.67;;;;;;;19.32;57.35;101972.53;5056047;28;20424;-62
2022/11/12 09:57:16;;;;;;;39.93;18.80;;;;;;;19.31;56.29;101968.00;5019609;28;20424;-62
2022/11/12 09:59:42;;;;;;;33.37;17.90;;;;;;;19.38;55.00;101974.00;5085958;28;20424;-62
2022/11/12 10:02:17;;;;;;;32.27;15.17;;;;;;;19.31;54.85;101974.53;5071685;28;20182;-61
2022/11/12 10:04:44;;;;;;;25.60;11.70;;;;;;;19.19;53.76;101971.56;5068235;28;20209;-63
2022/11/12 10:07:34;;;;;;;18.00;9.10;;;;;;;19.09;52.84;101977.69;5088298;28;20436;-62
2022/11/12 10:10:15;;;;;;;11.90;8.07;;;;;;;19.04;52.03;101968.44;5067011;28;20497;-62
2022/11/12 10:12:59;;;;;;;13.63;7.93;;;;;;;19.20;50.80;101966.66;5054763;28;20425;-63
2022/11/12 10:18:49;;;;;;;16.87;8.47;;;;;;;20.02;50.06;101963.91;5074097;28;20436;-63
2022/11/12 10:21:27;;;;;;;15.20;9.33;;;;;;;20.24;50.35;101954.94;5070470;28;20762;-63
2022/11/12 10:23:52;;;;;;;14.40;8.07;;;;;;;20.30;50.57;101950.66;5074015;28;20954;-63
2022/11/12 10:26:22;;;;;;;14.80;8.33;;;;;;;20.28;50.42;101951.03;5072419;28;20515;-65
2022/11/12 10:28:58;;;;;;;15.00;8.70;;;;;;;20.29;50.84;101949.84;5044245;28;20255;-63
2022/11/12 10:31:23;;;;;;;15.20;9.50;;;;;;;20.53;51.98;101943.34;5057668;28;20448;-62
2022/11/12 10:33:49;;;;;;;17.80;8.83;;;;;;;20.16;52.25;101941.56;5075171;28;20485;-63
2022/11/12 10:36:20;;;;;;;14.07;8.60;;;;;;;20.02;52.65;101936.06;5055014;28;20178;-64
2022/11/12 10:38:46;;;;;;;13.70;8.57;;;;;;;20.04;53.38;101930.84;5053935;28;20206;-63
2022/11/12 10:41:21;;;;;;;17.60;8.87;;;;;;;20.22;54.32;101929.50;5087058;28;20508;-62
2022/11/12 10:43:54;;;;;;;14.93;9.03;;;;;;;20.18;55.14;101922.81;5072690;28;20443;-62
2022/11/12 10:46:21;;;;;;;19.87;10.23;;;;;;;20.16;56.19;101922.31;5053656;28;20451;-62
2022/11/12 10:48:55;;;;;;;23.73;10.00;;;;;;;20.28;54.77;101915.78;5071229;28;20471;-62
2022/11/12 10:51:29;;;;;;;16.73;9.57;;;;;;;20.31;55.38;101917.94;5051640;28;20425;-64
2022/11/12 10:53:54;;;;;;;18.00;10.20;;;;;;;20.46;56.94;101920.97;5081571;28;21222;-63
2022/11/12 10:56:24;;;;;;;16.03;12.40;;;;;;;20.55;56.88;101920.84;5073387;28;20428;-62
2022/11/12 10:59:12;;;;;;;15.67;10.03;;;;;;;20.36;57.06;101904.19;5074926;28;20601;-63
2022/11/12 11:01:38;;;;;;;15.87;9.40;;;;;;;20.30;57.50;101904.78;5055660;28;20774;-63
2022/11/12 11:04:03;;;;;;;15.17;9.00;;;;;;;20.27;57.40;101899.75;5083014;28;20572;-62
2022/11/12 11:06:29;;;;;;;13.67;8.77;;;;;;;20.18;57.49;101899.88;5052509;28;20483;-63
2022/11/12 11:09:27;;;;;;;21.23;8.67;;;;;;;20.18;57.34;101902.72;5059707;28;20195;-63
2022/11/12 11:11:52;;;;;;;16.83;8.80;;;;;;;20.19;57.55;101900.69;5035966;28;20224;-63
2022/11/12 11:14:21;;;;;;;21.83;8.60;;;;;;;20.13;57.69;101900.09;5067676;28;20522;-63
2022/11/12 11:16:51;;;;;;;12.00;7.70;;;;;;;20.16;57.23;101899.38;5079240;28;20217;-61
2022/11/12 11:19:16;;;;;;;14.30;7.47;;;;;;;20.08;56.77;101903.19;5071710;28;20778;-62
2022/11/12 11:21:48;;;;;;;13.00;7.00;;;;;;;19.93;56.82;101897.22;5077572;28;20438;-62
2022/11/12 11:24:25;;;;;;;14.00;7.73;;;;;;;19.91;57.12;101896.75;5075711;28;20213;-62
2022/11/12 11:27:12;;;;;;;14.27;6.97;;;;;;;19.87;56.94;101890.84;5075883;28;20444;-62
2022/11/12 11:30:05;;;;;;;13.60;7.70;;;;;;;19.89;57.65;101899.94;5057011;28;20503;-63
2022/11/12 11:33:02;;;;;;;10.30;5.90;;;;;;;19.92;57.93;101889.81;5070185;28;20449;-63
2022/11/12 11:35:50;;;;;;;11.13;6.70;;;;;;;20.02;58.15;101887.31;5060402;28;20488;-63
2022/11/12 11:38:40;;;;;;;10.63;6.90;;;;;;;20.04;58.00;101890.69;5089350;28;20420;-63
2022/11/12 11:41:55;;;;;;;12.17;6.80;;;;;;;20.05;57.86;101882.91;5082580;28;20420;-63
2022/11/12 11:44:38;;;;;;;9.47;5.90;;;;;;;20.11;58.01;101878.69;5061710;28;20520;-62
2022/11/12 11:47:28;;;;;;;11.93;6.60;;;;;;;20.12;58.43;101863.97;5084134;28;20434;-63
2022/11/12 11:49:54;;;;;;;10.87;6.10;;;;;;;20.13;58.55;101871.41;5058770;28;20464;-64
2022/11/12 11:52:28;;;;;;;9.40;6.27;;;;;;;20.17;58.33;101868.66;5084453;28;21364;-62
2022/11/12 11:55:18;;;;;;;11.37;6.47;;;;;;;20.08;58.73;101873.66;5075818;28;20189;-62
2022/11/12 11:57:55;;;;;;;11.40;7.23;;;;;;;20.13;58.50;101871.41;5079486;28;20442;-62